Time;durP1;ratioP1;P1;durP2;ratioP2;P2;SDS_P1;SDS_P2;PMS_P1;PMS_P2;Temp;Humidity;BMP_temperature;BMP_pressure;BME280_temperature;BME280_humidity;BME280_pressure;Samples;Min_cycle;Max_cycle;Signal;HPM_P1;HPM_P2
2021/12/21 00:00:01;;;;;;;8.70;4.05;;;;;;;;;;5092301;28;20032;-61
2021/12/21 00:02:27;;;;;;;9.52;3.80;;;;;;;;;;5091975;28;20050;-60
2021/12/21 00:04:53;;;;;;;9.82;4.20;;;;;;;;;;5092449;28;20062;-59
2021/12/21 00:07:19;;;;;;;6.05;3.50;;;;;;;;;;5091463;28;20459;-61
2021/12/21 00:09:45;;;;;;;6.03;3.67;;;;;;;;;;5088533;28;20043;-59
2021/12/21 00:12:15;;;;;;;6.20;3.55;;;;;;;;;;5091968;28;21399;-60
2021/12/21 00:14:59;;;;;;;8.35;4.00;;;;;;;;;;5092531;28;20043;-61
2021/12/21 00:20:26;;;;;;;8.68;3.28;;;;;;;;;;5092372;28;20051;-60
2021/12/21 00:25:19;;;;;;;6.57;3.13;;;;;;;;;;5091237;28;20620;-59
2021/12/21 00:27:47;;;;;;;5.72;2.67;;;;;;;;;;5091749;28;20117;-60
2021/12/21 00:30:13;;;;;;;5.78;2.88;;;;;;;;;;5091173;28;20162;-61
2021/12/21 00:32:39;;;;;;;6.00;3.20;;;;;;;;;;5091566;28;20048;-60
2021/12/21 00:35:06;;;;;;;9.07;3.83;;;;;;;;;;5092967;28;20682;-60
2021/12/21 00:37:32;;;;;;;8.93;3.97;;;;;;;;;;5091368;28;20040;-60
2021/12/21 00:39:58;;;;;;;7.22;3.97;;;;;;;;;;5088473;28;20035;-60
2021/12/21 00:42:24;;;;;;;6.25;3.53;;;;;;;;;;5090900;28;20048;-60
2021/12/21 00:44:50;;;;;;;7.60;3.97;;;;;;;;;;5091008;28;20071;-59
2021/12/21 00:47:17;;;;;;;6.65;3.80;;;;;;;;;;5090730;28;20040;-59
2021/12/21 00:49:57;;;;;;;6.70;3.53;;;;;;;;;;5088783;28;20115;-59
2021/12/21 00:52:23;;;;;;;8.50;3.92;;;;;;;;;;5090392;28;20043;-60
2021/12/21 00:54:49;;;;;;;8.40;3.40;;;;;;;;;;5091179;28;20039;-59
2021/12/21 00:57:15;;;;;;;5.05;3.42;;;;;;;;;;5090892;28;20122;-60
2021/12/21 00:59:43;;;;;;;5.40;3.17;;;;;;;;;;5091711;28;20036;-60
2021/12/21 01:02:09;;;;;;;8.82;3.20;;;;;;;;;;5091138;28;20034;-59
2021/12/21 01:04:41;;;;;;;9.25;3.55;;;;;;;;;;5090826;28;20085;-59
2021/12/21 01:10:05;;;;;;;5.70;3.13;;;;;;;;;;5090961;28;20137;-60
2021/12/21 01:18:04;;;;;;;8.60;2.83;;;;;;;;;;5050191;28;20523;-59
2021/12/21 01:20:38;;;;;;;5.55;3.00;;;;;;;;;;5048056;28;20311;-59
2021/12/21 01:28:45;;;;;;;6.05;2.90;;;;;;;;;;5048025;28;20045;-59
2021/12/21 01:36:58;;;;;;;6.10;2.90;;;;;;;;;;5028012;28;20048;-60
2021/12/21 01:49:35;;;;;;;6.40;2.65;;;;;;;;;;5027433;28;20053;-60
2021/12/21 01:50:13;;;;;;;6.72;3.13;;;;;;;;;;5028027;28;20462;-59
2021/12/21 01:52:40;;;;;;;8.20;2.92;;;;;;;;;;5027383;28;20041;-61
2021/12/21 01:55:06;;;;;;;4.85;2.53;;;;;;;;;;5044509;28;20052;-59
2021/12/21 01:57:32;;;;;;;6.80;2.67;;;;;;;;;;5048021;28;20522;-60
2021/12/21 01:59:58;;;;;;;7.40;3.15;;;;;;;;;;5048017;28;20128;-60
2021/12/21 02:02:24;;;;;;;6.43;2.70;;;;;;;;;;5048084;28;20384;-60
2021/12/21 02:04:51;;;;;;;6.30;2.90;;;;;;;;;;5046735;28;20036;-59
2021/12/21 02:07:17;;;;;;;5.57;2.50;;;;;;;;;;5047864;28;20179;-60
2021/12/21 02:09:43;;;;;;;4.97;2.90;;;;;;;;;;5057803;28;20051;-59
2021/12/21 02:12:11;;;;;;;5.68;2.90;;;;;;;;;;5088210;28;20073;-60
2021/12/21 02:14:38;;;;;;;7.28;3.05;;;;;;;;;;5087841;28;20047;-59
2021/12/21 02:17:29;;;;;;;5.32;2.38;;;;;;;;;;5088344;28;20043;-60
2021/12/21 02:22:50;;;;;;;;;;;;;;;;;;5092450;28;20036;-61
2021/12/21 02:27:58;;;;;;;5.18;2.42;;;;;;;;;;5093915;28;20071;-59
2021/12/21 02:30:25;;;;;;;5.47;2.80;;;;;;;;;;5093696;28;20405;-60
2021/12/21 02:32:51;;;;;;;8.68;3.15;;;;;;;;;;5093944;28;20047;-61
2021/12/21 02:35:18;;;;;;;4.82;2.63;;;;;;;;;;5093171;28;20043;-59
2021/12/21 02:37:44;;;;;;;10.40;3.20;;;;;;;;;;5093219;28;20040;-61
2021/12/21 02:40:10;;;;;;;6.40;2.72;;;;;;;;;;5093879;28;20383;-59
2021/12/21 02:42:36;;;;;;;6.20;2.67;;;;;;;;;;5093402;28;20561;-59
2021/12/21 02:45:03;;;;;;;6.43;3.25;;;;;;;;;;5093721;28;20032;-60
2021/12/21 02:47:29;;;;;;;5.38;2.70;;;;;;;;;;5093248;28;20039;-58
2021/12/21 02:49:55;;;;;;;7.50;2.80;;;;;;;;;;5094081;28;20036;-58
2021/12/21 02:52:21;;;;;;;7.15;2.75;;;;;;;;;;5093496;28;20040;-60
2021/12/21 02:54:47;;;;;;;8.13;2.80;;;;;;;;;;5094031;28;20541;-58
2021/12/21 02:57:13;;;;;;;5.40;2.72;;;;;;;;;;5092976;28;20035;-60
2021/12/21 02:59:39;;;;;;;4.47;2.78;;;;;;;;;;5094044;28;20042;-59
2021/12/21 03:02:05;;;;;;;5.47;2.95;;;;;;;;;;5093327;28;20040;-60
2021/12/21 03:04:31;;;;;;;5.93;2.50;;;;;;;;;;5093750;28;20047;-60
2021/12/21 03:07:32;;;;;;;5.47;2.58;;;;;;;;;;5092001;28;20540;-60
2021/12/21 03:09:57;;;;;;;9.10;3.00;;;;;;;;;;5092327;28;20455;-59
2021/12/21 03:14:50;;;;;;;7.15;3.35;;;;;;;;;;5093511;28;20043;-58
2021/12/21 03:17:16;;;;;;;5.97;3.03;;;;;;;;;;5093205;28;20101;-59
2021/12/21 03:19:43;;;;;;;6.82;2.70;;;;;;;;;;5093004;28;20114;-59
2021/12/21 03:22:09;;;;;;;4.80;2.38;;;;;;;;;;5092247;28;20039;-59
2021/12/21 03:24:36;;;;;;;6.03;2.85;;;;;;;;;;5092882;28;20047;-59
2021/12/21 03:27:02;;;;;;;5.25;2.63;;;;;;;;;;5093429;28;20043;-59
2021/12/21 03:29:28;;;;;;;5.35;2.75;;;;;;;;;;5092379;28;20038;-58
2021/12/21 03:31:54;;;;;;;8.95;2.90;;;;;;;;;;5092699;28;20031;-59
2021/12/21 03:34:20;;;;;;;6.57;2.70;;;;;;;;;;5092853;28;20032;-59
2021/12/21 03:36:46;;;;;;;4.45;2.33;;;;;;;;;;5093196;28;20069;-60
2021/12/21 03:39:20;;;;;;;4.78;2.70;;;;;;;;;;5092619;28;20036;-61
2021/12/21 03:41:54;;;;;;;5.95;2.90;;;;;;;;;;5092687;28;20497;-58
2021/12/21 03:44:20;;;;;;;4.88;2.47;;;;;;;;;;5091058;28;20435;-60
2021/12/21 03:46:49;;;;;;;8.13;2.75;;;;;;;;;;5093010;28;20081;-59
2021/12/21 03:49:52;;;;;;;5.95;2.67;;;;;;;;;;5090432;28;20050;-60
2021/12/21 03:52:11;;;;;;;6.00;2.80;;;;;;;;;;5092535;28;20120;-60
2021/12/21 03:54:38;;;;;;;4.90;2.88;;;;;;;;;;5092554;28;20474;-59
2021/12/21 03:57:04;;;;;;;7.53;2.97;;;;;;;;;;5092924;28;20028;-59
2021/12/21 03:59:30;;;;;;;5.60;3.70;;;;;;;;;;5092138;28;20051;-59
2021/12/21 04:01:57;;;;;;;6.38;3.05;;;;;;;;;;5092859;28;20547;-59
2021/12/21 04:04:24;;;;;;;4.95;2.88;;;;;;;;;;5089289;28;20050;-60
2021/12/21 04:06:50;;;;;;;7.28;2.67;;;;;;;;;;5092185;28;20452;-60
2021/12/21 04:09:16;;;;;;;7.07;2.60;;;;;;;;;;5091932;28;20046;-58
2021/12/21 04:11:43;;;;;;;6.07;3.25;;;;;;;;;;5092280;28;20032;-59
2021/12/21 04:14:09;;;;;;;9.90;3.17;;;;;;;;;;5092050;28;20037;-59
2021/12/21 04:16:35;;;;;;;7.45;3.20;;;;;;;;;;5092118;28;20101;-59
2021/12/21 04:19:01;;;;;;;7.20;2.90;;;;;;;;;;5091997;28;20036;-61
2021/12/21 04:21:28;;;;;;;7.38;3.45;;;;;;;;;;5091987;28;20068;-59
2021/12/21 04:23:54;;;;;;;7.22;3.20;;;;;;;;;;5091379;28;20036;-60
2021/12/21 04:26:21;;;;;;;6.15;3.00;;;;;;;;;;5092038;28;20105;-60
2021/12/21 04:28:47;;;;;;;5.15;3.05;;;;;;;;;;5091448;28;20044;-58
2021/12/21 04:31:13;;;;;;;7.78;3.38;;;;;;;;;;5090519;28;20032;-61
2021/12/21 04:33:42;;;;;;;7.55;3.10;;;;;;;;;;5091664;28;20077;-58
2021/12/21 04:36:08;;;;;;;5.40;3.03;;;;;;;;;;5091844;28;20134;-61
2021/12/21 04:38:38;;;;;;;4.82;2.83;;;;;;;;;;5091717;28;20066;-59
2021/12/21 04:41:14;;;;;;;8.25;3.35;;;;;;;;;;5090335;28;20044;-60
2021/12/21 04:43:41;;;;;;;5.90;3.08;;;;;;;;;;5090834;28;20132;-61
2021/12/21 04:46:07;;;;;;;8.27;3.40;;;;;;;;;;5091698;28;20039;-60
2021/12/21 04:48:33;;;;;;;5.57;3.35;;;;;;;;;;5091751;28;20489;-60
2021/12/21 04:50:59;;;;;;;5.22;3.35;;;;;;;;;;5091451;28;20032;-59
2021/12/21 04:53:25;;;;;;;8.52;3.35;;;;;;;;;;5091714;28;20128;-59
2021/12/21 04:55:52;;;;;;;5.93;3.00;;;;;;;;;;5089677;28;20055;-58
2021/12/21 04:58:18;;;;;;;8.35;4.03;;;;;;;;;;5090357;28;20682;-59
2021/12/21 05:00:44;;;;;;;8.80;3.20;;;;;;;;;;5091563;28;20148;-58
2021/12/21 05:03:10;;;;;;;5.53;3.03;;;;;;;;;;5091344;28;20044;-58
2021/12/21 05:05:37;;;;;;;10.63;3.30;;;;;;;;;;5091428;28;20064;-60
2021/12/21 05:08:21;;;;;;;6.22;3.55;;;;;;;;;;5091301;28;20471;-59
2021/12/21 05:10:51;;;;;;;7.35;3.67;;;;;;;;;;5089292;28;20111;-59
2021/12/21 05:13:18;;;;;;;7.55;3.30;;;;;;;;;;5090115;28;20411;-60
2021/12/21 05:15:44;;;;;;;7.45;3.78;;;;;;;;;;5091213;28;20040;-59
2021/12/21 05:18:11;;;;;;;8.13;3.42;;;;;;;;;;5091282;28;20058;-60
2021/12/21 05:20:37;;;;;;;4.72;3.30;;;;;;;;;;5090908;28;20429;-60
2021/12/21 05:23:03;;;;;;;6.53;3.33;;;;;;;;;;5090996;28;20044;-59
2021/12/21 05:25:30;;;;;;;8.32;4.68;;;;;;;;;;5091106;28;20058;-60
2021/12/21 05:27:56;;;;;;;6.35;3.25;;;;;;;;;;5090993;28;20043;-59
2021/12/21 05:30:23;;;;;;;5.60;3.13;;;;;;;;;;5090876;28;20036;-61
2021/12/21 05:32:49;;;;;;;6.85;3.33;;;;;;;;;;5091214;28;20509;-59
2021/12/21 05:35:16;;;;;;;6.22;3.47;;;;;;;;;;5090581;28;20048;-60
2021/12/21 05:37:42;;;;;;;8.32;3.10;;;;;;;;;;5090028;28;20054;-60
2021/12/21 05:40:15;;;;;;;7.95;3.13;;;;;;;;;;5090467;28;20102;-60
2021/12/21 05:42:42;;;;;;;7.15;3.67;;;;;;;;;;5091198;28;20075;-59
2021/12/21 05:45:09;;;;;;;14.07;4.28;;;;;;;;;;5090267;28;20501;-59
2021/12/21 05:47:35;;;;;;;9.05;4.10;;;;;;;;;;5090897;28;20048;-58
2021/12/21 05:50:03;;;;;;;11.80;5.50;;;;;;;;;;5090178;28;20406;-59
2021/12/21 05:52:29;;;;;;;13.10;5.70;;;;;;;;;;5090006;28;20059;-59
2021/12/21 05:54:55;;;;;;;17.80;6.05;;;;;;;;;;5087363;28;20040;-59
2021/12/21 05:57:21;;;;;;;9.57;5.65;;;;;;;;;;5089903;28;20032;-59
2021/12/21 05:59:47;;;;;;;9.98;5.78;;;;;;;;;;5090565;28;20028;-59
2021/12/21 06:02:13;;;;;;;13.30;7.40;;;;;;;;;;5090009;28;20046;-60
2021/12/21 06:04:40;;;;;;;15.30;6.78;;;;;;;;;;5089181;28;20482;-60
2021/12/21 06:07:06;;;;;;;11.65;5.93;;;;;;;;;;5090026;28;20109;-59
2021/12/21 06:09:32;;;;;;;13.52;6.13;;;;;;;;;;5089626;28;20048;-59
2021/12/21 06:12:15;;;;;;;12.38;6.85;;;;;;;;;;5090325;28;20051;-59
2021/12/21 06:27:48;;;;;;;12.13;6.45;;;;;;;;;;5089356;28;20439;-58
2021/12/21 06:30:15;;;;;;;10.30;5.57;;;;;;;;;;5089850;28;20078;-60
2021/12/21 06:32:41;;;;;;;11.52;5.28;;;;;;;;;;5090155;28;20119;-60
2021/12/21 06:35:08;;;;;;;8.18;4.43;;;;;;;;;;5089744;28;20040;-59
2021/12/21 06:37:34;;;;;;;12.50;5.40;;;;;;;;;;5089565;28;20505;-60
2021/12/21 06:40:01;;;;;;;12.10;5.55;;;;;;;;;;5089653;28;20494;-59
2021/12/21 06:42:28;;;;;;;13.23;4.90;;;;;;;;;;5089245;28;20088;-60
2021/12/21 06:44:58;;;;;;;7.63;4.65;;;;;;;;;;5090090;28;20039;-58
2021/12/21 06:52:54;;;;;;;9.55;5.15;;;;;;;;;;5089613;28;20040;-60
2021/12/21 06:55:20;;;;;;;9.38;4.53;;;;;;;;;;5089151;28;20068;-59
2021/12/21 06:57:46;;;;;;;8.30;4.30;;;;;;;;;;5089764;28;20032;-59
2021/12/21 07:00:14;;;;;;;9.88;4.72;;;;;;;;;;5089878;28;20040;-60
2021/12/21 07:02:40;;;;;;;8.65;5.18;;;;;;;;;;5088027;28;20077;-60
2021/12/21 07:05:07;;;;;;;11.38;5.25;;;;;;;;;;5089751;28;20092;-60
2021/12/21 07:07:34;;;;;;;11.70;5.20;;;;;;;;;;5092548;28;20060;-60
2021/12/21 07:10:04;;;;;;;10.40;4.68;;;;;;;;;;5093120;28;20097;-60
2021/12/21 07:20:26;;;;;;;9.55;5.18;;;;;;;;;;5090250;28;20074;-61
2021/12/21 07:22:52;;;;;;;11.75;5.25;;;;;;;;;;5093060;28;20040;-60
2021/12/21 07:25:18;;;;;;;10.15;5.20;;;;;;;;;;5092564;28;20115;-60
2021/12/21 07:27:44;;;;;;;14.27;6.15;;;;;;;;;;5093364;28;20043;-60
2021/12/21 07:30:10;;;;;;;8.57;4.75;;;;;;;;;;5091562;28;20040;-60
2021/12/21 07:32:36;;;;;;;16.15;5.63;;;;;;;;;;5092077;28;20040;-61
2021/12/21 07:35:03;;;;;;;13.20;5.78;;;;;;;;;;5092303;28;20125;-70
2021/12/21 07:37:29;;;;;;;9.77;4.78;;;;;;;;;;5091057;28;20086;-61
2021/12/21 07:39:55;;;;;;;11.18;5.28;;;;;;;;;;5092539;28;20495;-61
2021/12/21 07:42:21;;;;;;;12.13;5.53;;;;;;;;;;5093494;28;20038;-62
2021/12/21 07:44:48;;;;;;;10.05;5.30;;;;;;;;;;5093331;28;20036;-61
2021/12/21 07:47:15;;;;;;;12.40;5.65;;;;;;;;;;5089767;28;20108;-62
2021/12/21 07:49:41;;;;;;;10.27;5.25;;;;;;;;;;5092643;28;20036;-62
2021/12/21 07:52:08;;;;;;;12.27;6.22;;;;;;;;;;5092741;28;20052;-63
2021/12/21 07:54:35;;;;;;;9.10;5.60;;;;;;;;;;5092766;28;20058;-62
2021/12/21 07:57:01;;;;;;;8.85;5.35;;;;;;;;;;5092807;28;20044;-61
2021/12/21 07:59:27;;;;;;;12.23;5.78;;;;;;;;;;5092671;28;20434;-61
2021/12/21 08:01:53;;;;;;;11.70;5.97;;;;;;;;;;5092237;28;20070;-61
2021/12/21 08:04:22;;;;;;;8.90;5.32;;;;;;;;;;5089722;28;20036;-61
2021/12/21 08:06:50;;;;;;;11.57;5.50;;;;;;;;;;5092375;28;20090;-61
2021/12/21 08:09:17;;;;;;;11.88;5.65;;;;;;;;;;5092702;28;20032;-61
2021/12/21 08:14:27;;;;;;;11.25;5.57;;;;;;;;;;5092812;28;20040;-62
2021/12/21 08:16:53;;;;;;;9.55;5.47;;;;;;;;;;5092066;28;20123;-62
2021/12/21 08:19:19;;;;;;;13.90;5.90;;;;;;;;;;5092688;28;20452;-61
2021/12/21 08:21:45;;;;;;;13.40;7.15;;;;;;;;;;5092535;28;20143;-61
2021/12/21 08:24:11;;;;;;;14.65;7.03;;;;;;;;;;5090991;28;20040;-61
2021/12/21 08:26:37;;;;;;;15.15;6.55;;;;;;;;;;5092469;28;20032;-63
2021/12/21 08:29:03;;;;;;;11.88;6.97;;;;;;;;;;5090845;28;20094;-61
2021/12/21 08:31:29;;;;;;;16.50;6.97;;;;;;;;;;5092628;28;20167;-61
2021/12/21 08:33:55;;;;;;;16.15;7.57;;;;;;;;;;5090871;28;20048;-61
2021/12/21 08:36:21;;;;;;;9.60;6.22;;;;;;;;;;5092415;28;20040;-61
2021/12/21 08:38:47;;;;;;;9.13;5.80;;;;;;;;;;5092406;28;20059;-61
2021/12/21 08:41:14;;;;;;;13.02;6.10;;;;;;;;;;5091885;28;20856;-61
2021/12/21 08:43:40;;;;;;;11.00;6.00;;;;;;;;;;5092021;28;20040;-62
2021/12/21 08:46:09;;;;;;;12.90;8.20;;;;;;;;;;5090826;28;20044;-62
2021/12/21 08:48:35;;;;;;;16.23;8.15;;;;;;;;;;5092226;28;20039;-62
2021/12/21 08:51:01;;;;;;;14.07;8.10;;;;;;;;;;5091949;28;20372;-62
2021/12/21 08:53:27;;;;;;;12.50;7.75;;;;;;;;;;5091924;28;20081;-62
2021/12/21 08:55:55;;;;;;;12.70;7.55;;;;;;;;;;5091826;28;20127;-61
2021/12/21 08:58:21;;;;;;;12.68;7.38;;;;;;;;;;5092066;28;20040;-61
2021/12/21 09:00:48;;;;;;;16.40;8.15;;;;;;;;;;5091940;28;20040;-62
2021/12/21 09:03:14;;;;;;;15.57;8.07;;;;;;;;;;5090142;28;20052;-61
2021/12/21 09:05:41;;;;;;;14.20;7.57;;;;;;;;;;5090614;28;20517;-61
2021/12/21 09:08:08;;;;;;;13.73;7.90;;;;;;;;;;5091255;28;20055;-61
2021/12/21 09:10:35;;;;;;;12.32;8.07;;;;;;;;;;5091558;28;20051;-61
2021/12/21 09:13:01;;;;;;;11.25;6.95;;;;;;;;;;5090236;28;20073;-62
2021/12/21 09:15:28;;;;;;;11.52;7.15;;;;;;;;;;5091681;28;20379;-63
2021/12/21 09:17:54;;;;;;;10.32;7.15;;;;;;;;;;5091650;28;20044;-62
2021/12/21 09:20:22;;;;;;;12.00;7.07;;;;;;;;;;5091386;28;20119;-61
2021/12/21 09:22:48;;;;;;;13.35;7.50;;;;;;;;;;5091732;28;20131;-61
2021/12/21 09:25:15;;;;;;;13.45;7.65;;;;;;;;;;5090978;28;20058;-62
2021/12/21 09:27:41;;;;;;;14.30;8.18;;;;;;;;;;5091399;28;20040;-62
2021/12/21 09:30:08;;;;;;;11.20;7.35;;;;;;;;;;5090769;28;20043;-61
2021/12/21 09:32:34;;;;;;;15.32;8.10;;;;;;;;;;5091378;28;20047;-62
2021/12/21 09:35:00;;;;;;;15.82;8.32;;;;;;;;;;5091037;28;20071;-62
2021/12/21 09:37:26;;;;;;;14.77;8.77;;;;;;;;;;5087238;28;20043;-62
2021/12/21 09:39:53;;;;;;;13.90;8.93;;;;;;;;;;5091032;28;20028;-61
2021/12/21 09:42:22;;;;;;;14.18;8.30;;;;;;;;;;5090423;28;20075;-61
2021/12/21 09:44:48;;;;;;;15.80;8.68;;;;;;;;;;5085606;28;20150;-62
2021/12/21 09:47:15;;;;;;;14.40;8.68;;;;;;;;;;5090525;28;20115;-62
2021/12/21 09:49:43;;;;;;;16.55;9.23;;;;;;;;;;5090927;28;20066;-62
2021/12/21 09:52:10;;;;;;;17.52;9.02;;;;;;;;;;5089474;28;20036;-61
2021/12/21 09:54:37;;;;;;;17.60;10.13;;;;;;;;;;5090461;28;20035;-62
2021/12/21 09:57:04;;;;;;;20.15;9.77;;;;;;;;;;5090752;28;20441;-62
2021/12/21 09:59:30;;;;;;;16.35;8.93;;;;;;;;;;5090198;28;20088;-62
2021/12/21 10:01:57;;;;;;;19.55;10.02;;;;;;;;;;5090819;28;20168;-62
2021/12/21 10:04:26;;;;;;;15.85;10.30;;;;;;;;;;5090347;28;20043;-61
2021/12/21 10:06:54;;;;;;;16.55;10.02;;;;;;;;;;5084891;28;20063;-62
2021/12/21 10:09:23;;;;;;;18.85;9.63;;;;;;;;;;5090275;28;20075;-61
2021/12/21 10:11:50;;;;;;;19.60;9.73;;;;;;;;;;5090823;28;20390;-62
2021/12/21 10:14:17;;;;;;;18.42;10.38;;;;;;;;;;5090625;28;20096;-62
2021/12/21 10:16:43;;;;;;;14.25;9.05;;;;;;;;;;5090554;28;20040;-62
2021/12/21 10:19:19;;;;;;;20.38;10.95;;;;;;;;;;5090831;28;20043;-61
2021/12/21 10:21:46;;;;;;;18.13;10.15;;;;;;;;;;5083796;28;20168;-62
2021/12/21 10:24:22;;;;;;;18.00;10.45;;;;;;;;;;5090514;28;20081;-61
2021/12/21 10:26:48;;;;;;;16.17;9.95;;;;;;;;;;5090685;28;20036;-61
2021/12/21 10:29:15;;;;;;;18.33;10.00;;;;;;;;;;5090315;28;20372;-63
2021/12/21 10:31:45;;;;;;;18.17;9.63;;;;;;;;;;5090467;28;20505;-61
2021/12/21 10:34:16;;;;;;;16.38;10.20;;;;;;;;;;5090699;28;20036;-62
2021/12/21 10:36:43;;;;;;;19.50;10.40;;;;;;;;;;5088404;28;20040;-62
2021/12/21 10:39:09;;;;;;;14.77;9.45;;;;;;;;;;5090529;28;20105;-62
2021/12/21 10:41:38;;;;;;;15.13;10.80;;;;;;;;;;5094273;28;20040;-61
2021/12/21 10:44:06;;;;;;;16.10;11.70;;;;;;;;;;5094491;28;20047;-61
2021/12/21 10:46:34;;;;;;;18.38;12.00;;;;;;;;;;5094105;28;20044;-61
2021/12/21 10:49:21;;;;;;;17.58;10.68;;;;;;;;;;5094704;28;20413;-62
2021/12/21 10:52:05;;;;;;;16.23;10.73;;;;;;;;;;5094339;28;20082;-62
2021/12/21 10:54:31;;;;;;;16.58;11.77;;;;;;;;;;5093939;28;20132;-62
2021/12/21 10:57:10;;;;;;;20.00;11.57;;;;;;;;;;5094345;28;20090;-62
2021/12/21 10:59:37;;;;;;;21.23;12.13;;;;;;;;;;5093944;28;20055;-63
2021/12/21 11:02:15;;;;;;;18.35;11.43;;;;;;;;;;5094331;28;20390;-63
2021/12/21 11:04:42;;;;;;;18.38;11.77;;;;;;;;;;5092070;28;20052;-63
2021/12/21 11:09:54;;;;;;;18.77;11.43;;;;;;;;;;5094071;28;20406;-62
2021/12/21 11:12:20;;;;;;;19.73;11.43;;;;;;;;;;5092326;28;20032;-63
2021/12/21 11:14:46;;;;;;;14.90;10.57;;;;;;;;;;5093803;28;20039;-62
2021/12/21 11:17:12;;;;;;;22.75;11.07;;;;;;;;;;5092842;28;20039;-62
2021/12/21 11:19:38;;;;;;;19.10;10.50;;;;;;;;;;5093622;28;20050;-62
2021/12/21 11:22:04;;;;;;;16.40;10.43;;;;;;;;;;5093657;28;20115;-63
2021/12/21 11:24:31;;;;;;;16.00;10.20;;;;;;;;;;5093544;28;20039;-62
2021/12/21 11:26:57;;;;;;;21.95;10.35;;;;;;;;;;5093677;28;20390;-63
2021/12/21 11:29:24;;;;;;;16.92;9.57;;;;;;;;;;5089963;28;20042;-62
2021/12/21 11:31:54;;;;;;;16.88;10.23;;;;;;;;;;5093143;28;20036;-62
2021/12/21 11:34:23;;;;;;;16.00;10.27;;;;;;;;;;5093087;28;20093;-62
2021/12/21 11:39:39;;;;;;;16.08;10.00;;;;;;;;;;5092916;28;20079;-63
2021/12/21 11:42:07;;;;;;;15.75;9.65;;;;;;;;;;5093065;28;20040;-62
2021/12/21 11:44:58;;;;;;;15.80;9.07;;;7.30;99.90;;;;;;5092955;28;20040;-62
2021/12/21 11:47:31;;;;;;;14.38;8.65;;;;;;;;;;5090130;28;20498;-63
2021/12/21 11:50:01;;;;;;;16.38;8.57;;;;;;;;;;5092862;28;20048;-63
2021/12/21 11:52:28;;;;;;;15.45;9.20;;;;;;;;;;5091044;28;20063;-62
2021/12/21 11:54:54;;;;;;;13.95;8.60;;;;;;;;;;5092751;28;20447;-63
2021/12/21 11:57:22;;;;;;;13.85;8.50;;;;;;;;;;5092590;28;20036;-63
2021/12/21 11:59:51;;;;;;;14.55;9.13;;;;;;;;;;5092545;28;20040;-62
2021/12/21 12:02:31;;;;;;;13.40;8.85;;;;;;;;;;5093081;28;20043;-62
2021/12/21 12:04:57;;;;;;;15.38;9.30;;;;;;;;;;5093143;28;20051;-62
2021/12/21 12:07:24;;;;;;;16.60;8.27;;;;;;;;;;5092876;28;20494;-62
2021/12/21 12:10:04;;;;;;;13.13;8.23;;;;;;;;;;5092582;28;20087;-62
2021/12/21 12:12:30;;;;;;;12.00;8.07;;;;;;;;;;5092842;28;20119;-63
2021/12/21 12:15:00;;;;;;;14.98;8.30;;;;;;;;;;5092547;28;20050;-63
2021/12/21 12:17:27;;;;;;;12.20;8.13;;;;;;;;;;5092934;28;20036;-63
2021/12/21 12:20:00;;;;;;;13.63;8.02;;;;;;;;;;5092867;28;20040;-62
2021/12/21 12:22:33;;;;;;;14.57;7.65;;;;;;;;;;5092449;28;20040;-63
2021/12/21 12:24:59;;;;;;;12.98;7.47;;;;;;;;;;5092392;28;20130;-62
2021/12/21 12:27:26;;;;;;;12.35;7.45;;;;;;;;;;5092678;28;20032;-63
2021/12/21 12:29:55;;;;;;;12.93;8.00;;;;;;;;;;5092371;28;20089;-63
2021/12/21 12:32:32;;;;;;;13.35;7.25;;;;;;;;;;5091506;28;20487;-63
2021/12/21 12:35:02;;;;;;;12.48;7.63;;;;;;;;;;5092150;28;20040;-63
2021/12/21 12:37:28;;;;;;;12.52;6.82;;;;;;;;;;5092384;28;20040;-62
2021/12/21 12:39:55;;;;;;;16.50;8.13;;;;;;;;;;5092053;28;20039;-62
2021/12/21 12:42:29;;;;;;;11.48;6.97;;;;;;;;;;5092298;28;20051;-62
2021/12/21 12:45:09;;;;;;;10.60;7.30;;;;;;;;;;5091919;28;20077;-63
2021/12/21 12:47:44;;;;;;;14.73;6.68;;;12.80;99.90;;;;;;5091331;28;20067;-62
2021/12/21 12:50:14;;;;;;;10.20;6.20;;;;;;;;;;5092111;28;20461;-62
2021/12/21 12:53:01;;;;;;;11.32;6.65;;;15.30;99.90;;;;;;5092163;28;20422;-63
2021/12/21 12:55:42;;;;;;;11.20;6.72;;;17.00;99.90;;;;;;5090729;28;20046;-61
2021/12/21 12:58:20;;;;;;;8.52;5.60;;;17.70;99.90;;;;;;5092062;28;20075;-61
2021/12/21 13:00:53;;;;;;;10.23;6.03;;;;;;;;;;5092074;28;20119;-61
2021/12/21 13:03:21;;;;;;;10.68;6.25;;;;;;;;;;5091008;28;20131;-61
2021/12/21 13:05:52;;;;;;;12.38;6.50;;;15.70;97.20;;;;;;5090736;28;20563;-61
2021/12/21 13:08:20;;;;;;;9.18;6.13;;;;;;;;;;5091349;28;20109;-61
2021/12/21 13:10:47;;;;;;;10.38;6.15;;;;;;;;;;5092012;28;20048;-62
2021/12/21 13:13:14;;;;;;;10.23;5.75;;;;;;;;;;5091368;28;20116;-62
2021/12/21 13:15:41;;;;;;;12.65;6.78;;;;;;;;;;5091608;28;20051;-62
2021/12/21 13:18:08;;;;;;;13.25;6.00;;;;;;;;;;5091479;28;20089;-61
2021/12/21 13:20:35;;;;;;;10.27;5.82;;;;;;;;;;5086396;28;20140;-61
2021/12/21 13:23:13;;;;;;;12.07;5.95;;;;;;;;;;5090834;28;20127;-60
2021/12/21 13:25:39;;;;;;;10.48;5.82;;;;;;;;;;5091323;28;20036;-60
2021/12/21 13:28:12;;;;;;;9.43;5.88;;;;;;;;;;5089420;28;20138;-61
2021/12/21 13:30:46;;;;;;;8.60;5.82;;;;;;;;;;5091031;28;20474;-64
2021/12/21 13:33:17;;;;;;;10.73;8.40;;;;;;;;;;5090595;28;20044;-60
2021/12/21 13:35:44;;;;;;;13.20;6.97;;;;;;;;;;5091075;28;20093;-60
2021/12/21 13:38:17;;;;;;;11.10;6.45;;;;;;;;;;5090676;28;20382;-61
2021/12/21 13:40:43;;;;;;;11.60;6.32;;;;;;;;;;5090847;28;20047;-61
2021/12/21 13:43:13;;;;;;;9.35;5.93;;;;;;;;;;5090753;28;20055;-61
2021/12/21 13:45:40;;;;;;;11.85;6.50;;;;;;;;;;5090972;28;20057;-60
2021/12/21 13:48:15;;;;;;;10.27;6.05;;;;;;;;;;5090889;28;20042;-60
2021/12/21 13:50:41;;;;;;;10.25;6.35;;;;;;;;;;5089312;28;20204;-60
2021/12/21 13:53:07;;;;;;;9.80;6.60;;;;;;;;;;5090929;28;20044;-61
2021/12/21 13:55:36;;;;;;;11.75;6.97;;;;;;;;;;5090914;28;20067;-60
2021/12/21 13:58:05;;;;;;;11.23;6.28;;;;;;;;;;5091068;28;20047;-60
2021/12/21 14:00:32;;;;;;;12.68;6.70;;;;;;;;;;5090549;28;20119;-61
2021/12/21 14:03:04;;;;;;;11.65;7.18;;;;;;;;;;5091066;28;20047;-60
2021/12/21 14:05:42;;;;;;;10.88;6.88;;;;;;;;;;5090710;28;20072;-61
2021/12/21 14:08:09;;;;;;;12.95;6.28;;;;;;;;;;5090984;28;20129;-60
2021/12/21 14:10:46;;;;;;;11.82;7.53;;;;;;;;;;5082362;28;20466;-60
2021/12/21 14:13:13;;;;;;;9.68;6.85;;;;;;;;;;5090815;28;20044;-61
2021/12/21 14:15:39;;;;;;;12.57;7.20;;;;;;;;;;5090733;28;20044;-60
2021/12/21 14:18:29;;;;;;;13.65;6.57;;;;;;;;;;5090737;28;20040;-60
2021/12/21 14:21:12;;;;;;;11.43;6.90;;;;;;;;;;5090773;28;20047;-61
2021/12/21 14:23:41;;;;;;;10.45;6.72;;;;;;;;;;5081182;28;20044;-60
2021/12/21 14:26:12;;;;;;;11.82;7.05;;;;;;;;;;5090741;28;20072;-60
2021/12/21 14:29:04;;;;;;;13.00;7.68;;;;;;;;;;5090490;28;20119;-60
2021/12/21 14:31:39;;;;;;;13.52;7.72;;;;;;;;;;5089132;28;20542;-61
2021/12/21 14:34:05;;;;;;;12.95;6.90;;;;;;;;;;5090899;28;20136;-61
2021/12/21 14:36:33;;;;;;;10.93;6.32;;;;;;;;;;5090483;28;20044;-61
2021/12/21 14:39:02;;;;;;;11.05;7.03;;;;;;;;;;5090623;28;20521;-61
2021/12/21 14:41:31;;;;;;;13.55;7.53;;;;;;;;;;5090085;28;20040;-61
2021/12/21 14:44:02;;;;;;;13.65;7.95;;;;;;;;;;5089885;28;20036;-60
2021/12/21 14:46:28;;;;;;;14.27;8.68;;;;;;;;;;5090255;28;20036;-60
2021/12/21 14:49:25;;;;;;;15.75;9.15;;;4.50;99.90;;;;;;5090601;28;20070;-60
2021/12/21 14:51:51;;;;;;;12.68;7.47;;;;;;;;;;5077715;28;20048;-61
2021/12/21 14:54:51;;;;;;;12.88;7.65;;;;;;;;;;5090313;28;20032;-61
2021/12/21 14:57:09;;;;;;;11.55;7.50;;;;;;;;;;5088824;28;20043;-61
2021/12/21 14:59:37;;;;;;;13.52;7.80;;;;;;;;;;5089793;28;20078;-60
2021/12/21 15:02:11;;;;;;;12.48;6.90;;;;;;;;;;5090377;28;20051;-60
2021/12/21 15:04:43;;;;;;;11.20;7.10;;;;;;;;;;5089993;28;20044;-60
2021/12/21 15:07:09;;;;;;;;;;;4.10;99.90;;;;;;5090600;28;20051;-60
2021/12/21 15:09:35;;;;;;;10.98;6.80;;;;;;;;;;5087103;28;19919;-60
2021/12/21 15:12:01;;;;;;;9.00;6.90;;;;;;;;;;5087586;28;20481;-60
2021/12/21 15:14:28;;;;;;;10.25;7.28;;;;;;;;;;5089844;28;20050;-61
2021/12/21 15:16:54;;;;;;;13.20;7.43;;;;;;;;;;5089725;28;20044;-60
2021/12/21 15:19:20;;;;;;;12.00;7.50;;;;;;;;;;5089869;28;20032;-60
2021/12/21 15:21:46;;;;;;;13.32;7.57;;;;;;;;;;5089445;28;20048;-60
2021/12/21 15:24:13;;;;;;;12.85;8.00;;;;;;;;;;5089946;28;20036;-62
2021/12/21 15:26:39;;;;;;;12.50;8.15;;;;;;;;;;5090543;28;20044;-61
2021/12/21 15:29:05;;;;;;;18.55;11.45;;;;;;;;;;5093239;28;20040;-62
2021/12/21 15:31:31;;;;;;;58.97;28.98;;;;;;;;;;5093510;28;20036;-61
2021/12/21 15:33:57;;;;;;;26.83;14.25;;;;;;;;;;5093142;28;20394;-62
2021/12/21 15:36:24;;;;;;;31.77;17.48;;;;;;;;;;5093217;28;20036;-61
2021/12/21 15:38:54;;;;;;;27.77;15.38;;;;;;;;;;5092952;28;20044;-61
2021/12/21 15:41:21;;;;;;;24.85;13.95;;;;;;;;;;5092929;28;20040;-61
2021/12/21 15:43:47;;;;;;;33.15;18.92;;;;;;;;;;5092995;28;20048;-62
2021/12/21 15:46:13;;;;;;;42.88;23.95;;;;;;;;;;5093392;28;20173;-60
2021/12/21 15:48:44;;;;;;;36.53;21.67;;;;;;;;;;5093129;28;20040;-59
2021/12/21 15:51:10;;;;;;;37.80;20.52;;;;;;;;;;5091955;28;20048;-60
2021/12/21 15:53:36;;;;;;;30.45;19.33;;;;;;;;;;5093174;28;20050;-60